sensor_id;sensor_type;location;lat;lon;timestamp;pressure;altitude;pressure_sealevel;temperature;humidity
10806;BME280;5455;53.224;6.000;2023-07-29T00:00:23;100619.09;;;19.42;100.00
10806;BME280;5455;53.224;6.000;2023-07-29T00:02:50;100622.69;;;19.42;100.00
10806;BME280;5455;53.224;6.000;2023-07-29T00:05:17;100617.56;;;19.37;100.00
10806;BME280;5455;53.224;6.000;2023-07-29T00:07:45;100610.84;;;19.31;100.00
10806;BME280;5455;53.224;6.000;2023-07-29T00:10:12;100603.38;;;19.24;100.00
10806;BME280;5455;53.224;6.000;2023-07-29T00:12:39;100597.72;;;19.28;100.00
10806;BME280;5455;53.224;6.000;2023-07-29T00:15:07;100596.63;;;19.22;100.00
10806;BME280;5455;53.224;6.000;2023-07-29T00:17:34;100601.44;;;19.21;100.00
10806;BME280;5455;53.224;6.000;2023-07-29T00:20:03;100601.91;;;19.16;100.00
10806;BME280;5455;53.224;6.000;2023-07-29T00:22:35;100593.94;;;19.15;100.00
10806;BME280;5455;53.224;6.000;2023-07-29T00:25:02;100600.69;;;19.17;100.00
10806;BME280;5455;53.224;6.000;2023-07-29T00:27:32;100593.53;;;19.16;100.00
10806;BME280;5455;53.224;6.000;2023-07-29T00:30:03;100589.94;;;19.16;100.00
10806;BME280;5455;53.224;6.000;2023-07-29T00:32:31;100593.94;;;19.15;100.00
10806;BME280;5455;53.224;6.000;2023-07-29T00:34:58;100594.78;;;19.12;100.00
10806;BME280;5455;53.224;6.000;2023-07-29T00:37:29;100596.44;;;19.09;100.00
10806;BME280;5455;53.224;6.000;2023-07-29T00:39:58;100594.03;;;19.08;100.00
10806;BME280;5455;53.224;6.000;2023-07-29T00:42:25;100587.72;;;19.04;100.00
10806;BME280;5455;53.224;6.000;2023-07-29T00:44:52;100585.28;;;19.06;100.00
10806;BME280;5455;53.224;6.000;2023-07-29T00:47:20;100581.28;;;19.07;100.00
10806;BME280;5455;53.224;6.000;2023-07-29T00:49:49;100592.88;;;19.05;100.00
10806;BME280;5455;53.224;6.000;2023-07-29T00:52:17;100581.75;;;19.02;100.00
10806;BME280;5455;53.224;6.000;2023-07-29T00:54:48;100579.44;;;18.97;100.00
10806;BME280;5455;53.224;6.000;2023-07-29T00:57:23;100574.34;;;18.92;100.00
10806;BME280;5455;53.224;6.000;2023-07-29T00:59:52;100573.13;;;18.93;100.00
10806;BME280;5455;53.224;6.000;2023-07-29T01:02:19;100568.00;;;18.88;100.00
10806;BME280;5455;53.224;6.000;2023-07-29T01:04:54;100570.84;;;18.84;100.00
10806;BME280;5455;53.224;6.000;2023-07-29T01:13:33;100562.34;;;18.68;100.00
10806;BME280;5455;53.224;6.000;2023-07-29T01:16:09;100570.72;;;18.68;100.00
10806;BME280;5455;53.224;6.000;2023-07-29T01:18:39;100561.84;;;18.73;100.00
10806;BME280;5455;53.224;6.000;2023-07-29T01:21:08;100563.75;;;18.80;100.00
10806;BME280;5455;53.224;6.000;2023-07-29T01:23:37;100568.44;;;18.86;100.00
10806;BME280;5455;53.224;6.000;2023-07-29T01:26:04;100562.84;;;18.86;100.00
10806;BME280;5455;53.224;6.000;2023-07-29T01:28:32;100558.03;;;18.87;100.00
10806;BME280;5455;53.224;6.000;2023-07-29T01:31:09;100553.25;;;18.87;100.00
10806;BME280;5455;53.224;6.000;2023-07-29T01:33:47;100563.56;;;18.90;100.00
10806;BME280;5455;53.224;6.000;2023-07-29T01:36:21;100555.19;;;18.90;100.00
10806;BME280;5455;53.224;6.000;2023-07-29T01:38:51;100556.72;;;18.95;100.00
10806;BME280;5455;53.224;6.000;2023-07-29T01:41:20;100556.34;;;18.93;100.00
10806;BME280;5455;53.224;6.000;2023-07-29T01:43:48;100552.00;;;18.92;100.00
10806;BME280;5455;53.224;6.000;2023-07-29T01:46:16;100547.59;;;18.91;100.00
10806;BME280;5455;53.224;6.000;2023-07-29T01:48:43;100546.00;;;18.90;100.00
10806;BME280;5455;53.224;6.000;2023-07-29T01:51:14;100546.00;;;18.90;100.00
10806;BME280;5455;53.224;6.000;2023-07-29T01:53:41;100540.75;;;18.95;100.00
10806;BME280;5455;53.224;6.000;2023-07-29T01:56:08;100547.06;;;18.99;100.00
10806;BME280;5455;53.224;6.000;2023-07-29T01:58:39;100536.28;;;19.01;100.00
10806;BME280;5455;53.224;6.000;2023-07-29T02:01:08;100544.66;;;19.01;100.00
10806;BME280;5455;53.224;6.000;2023-07-29T02:03:41;100548.31;;;18.98;100.00
10806;BME280;5455;53.224;6.000;2023-07-29T02:06:09;100542.81;;;18.91;100.00
10806;BME280;5455;53.224;6.000;2023-07-29T02:08:37;100546.34;;;18.95;100.00
10806;BME280;5455;53.224;6.000;2023-07-29T02:11:40;100542.31;;;18.96;100.00
10806;BME280;5455;53.224;6.000;2023-07-29T02:14:08;100539.19;;;18.94;100.00
10806;BME280;5455;53.224;6.000;2023-07-29T02:16:35;100539.28;;;18.87;100.00
10806;BME280;5455;53.224;6.000;2023-07-29T02:19:04;100540.97;;;18.81;100.00
10806;BME280;5455;53.224;6.000;2023-07-29T02:21:34;100538.72;;;18.73;100.00
10806;BME280;5455;53.224;6.000;2023-07-29T02:24:01;100531.59;;;18.68;100.00
10806;BME280;5455;53.224;6.000;2023-07-29T02:26:29;100530.84;;;18.64;100.00
10806;BME280;5455;53.224;6.000;2023-07-29T02:29:00;100531.34;;;18.59;100.00
10806;BME280;5455;53.224;6.000;2023-07-29T02:31:28;100536.09;;;18.62;100.00
10806;BME280;5455;53.224;6.000;2023-07-29T02:33:55;100529.66;;;18.65;100.00
10806;BME280;5455;53.224;6.000;2023-07-29T02:36:23;100530.50;;;18.62;100.00
10806;BME280;5455;53.224;6.000;2023-07-29T02:38:51;100528.06;;;18.64;100.00
10806;BME280;5455;53.224;6.000;2023-07-29T02:41:18;100532.53;;;18.58;100.00
10806;BME280;5455;53.224;6.000;2023-07-29T02:43:50;100537.03;;;18.52;100.00
10806;BME280;5455;53.224;6.000;2023-07-29T02:46:17;100533.09;;;18.46;100.00
10806;BME280;5455;53.224;6.000;2023-07-29T02:48:45;100524.03;;;18.38;100.00
10806;BME280;5455;53.224;6.000;2023-07-29T02:51:12;100523.28;;;18.34;100.00
10806;BME280;5455;53.224;6.000;2023-07-29T02:53:39;100530.09;;;18.30;100.00
10806;BME280;5455;53.224;6.000;2023-07-29T02:56:07;100528.59;;;18.25;100.00
10806;BME280;5455;53.224;6.000;2023-07-29T02:58:36;100520.69;;;18.20;100.00
10806;BME280;5455;53.224;6.000;2023-07-29T03:01:05;100525.09;;;18.17;100.00
10806;BME280;5455;53.224;6.000;2023-07-29T03:03:33;100526.34;;;18.13;100.00
10806;BME280;5455;53.224;6.000;2023-07-29T03:06:03;100522.91;;;18.02;100.00
10806;BME280;5455;53.224;6.000;2023-07-29T03:08:31;100517.34;;;18.02;100.00
10806;BME280;5455;53.224;6.000;2023-07-29T03:11:04;100513.78;;;17.98;100.00
10806;BME280;5455;53.224;6.000;2023-07-29T03:13:31;100507.00;;;17.99;100.00
10806;BME280;5455;53.224;6.000;2023-07-29T03:16:08;100509.84;;;17.95;100.00
10806;BME280;5455;53.224;6.000;2023-07-29T03:18:38;100508.69;;;17.93;100.00
10806;BME280;5455;53.224;6.000;2023-07-29T03:21:06;100507.13;;;17.88;100.00
10806;BME280;5455;53.224;6.000;2023-07-29T03:23:34;100510.72;;;17.89;100.00
10806;BME280;5455;53.224;6.000;2023-07-29T03:26:02;100515.50;;;17.88;100.00
10806;BME280;5455;53.224;6.000;2023-07-29T03:28:43;100508.00;;;17.82;100.00
10806;BME280;5455;53.224;6.000;2023-07-29T03:31:11;100508.00;;;17.82;100.00
10806;BME280;5455;53.224;6.000;2023-07-29T03:33:38;100508.44;;;17.80;100.00
10806;BME280;5455;53.224;6.000;2023-07-29T03:36:17;100505.31;;;17.75;100.00
10806;BME280;5455;53.224;6.000;2023-07-29T03:38:48;100500.13;;;17.73;100.00
10806;BME280;5455;53.224;6.000;2023-07-29T03:41:15;100497.38;;;17.70;100.00
10806;BME280;5455;53.224;6.000;2023-07-29T03:43:43;100502.56;;;17.71;100.00
10806;BME280;5455;53.224;6.000;2023-07-29T03:46:10;100495.84;;;17.65;100.00
10806;BME280;5455;53.224;6.000;2023-07-29T03:48:39;100492.78;;;17.56;100.00
10806;BME280;5455;53.224;6.000;2023-07-29T03:51:07;100489.13;;;17.63;100.00
10806;BME280;5455;53.224;6.000;2023-07-29T03:53:34;100488.00;;;17.56;100.00
10806;BME280;5455;53.224;6.000;2023-07-29T03:56:02;100485.94;;;17.60;100.00
10806;BME280;5455;53.224;6.000;2023-07-29T03:58:30;100483.94;;;17.61;100.00
10806;BME280;5455;53.224;6.000;2023-07-29T04:00:58;100485.50;;;17.66;100.00
10806;BME280;5455;53.224;6.000;2023-07-29T04:03:26;100487.50;;;17.65;100.00
10806;BME280;5455;53.224;6.000;2023-07-29T04:05:55;100490.63;;;17.67;100.00
10806;BME280;5455;53.224;6.000;2023-07-29T04:08:22;100493.81;;;17.69;100.00
10806;BME280;5455;53.224;6.000;2023-07-29T04:10:49;100494.19;;;17.71;100.00
10806;BME280;5455;53.224;6.000;2023-07-29T04:13:16;100488.25;;;17.69;100.00
10806;BME280;5455;53.224;6.000;2023-07-29T04:15:44;100482.59;;;17.73;100.00
10806;BME280;5455;53.224;6.000;2023-07-29T04:18:12;100482.56;;;17.76;100.00
10806;BME280;5455;53.224;6.000;2023-07-29T04:20:39;100483.00;;;17.75;100.00
10806;BME280;5455;53.224;6.000;2023-07-29T04:23:06;100485.00;;;17.74;100.00
10806;BME280;5455;53.224;6.000;2023-07-29T04:25:34;100481.78;;;17.76;100.00
10806;BME280;5455;53.224;6.000;2023-07-29T04:28:02;100480.91;;;17.82;100.00
10806;BME280;5455;53.224;6.000;2023-07-29T04:30:30;100478.91;;;17.83;100.00
10806;BME280;5455;53.224;6.000;2023-07-29T04:32:58;100480.03;;;17.89;100.00
10806;BME280;5455;53.224;6.000;2023-07-29T04:35:25;100486.38;;;17.93;100.00
10806;BME280;5455;53.224;6.000;2023-07-29T04:37:53;100495.13;;;17.91;100.00
10806;BME280;5455;53.224;6.000;2023-07-29T04:40:20;100491.16;;;17.92;100.00
10806;BME280;5455;53.224;6.000;2023-07-29T04:42:51;100491.16;;;17.92;100.00
10806;BME280;5455;53.224;6.000;2023-07-29T04:45:18;100497.09;;;17.94;100.00
10806;BME280;5455;53.224;6.000;2023-07-29T04:47:46;100495.09;;;17.95;100.00
10806;BME280;5455;53.224;6.000;2023-07-29T04:50:13;100495.47;;;17.97;100.00
10806;BME280;5455;53.224;6.000;2023-07-29T04:52:40;100498.66;;;17.99;100.00
10806;BME280;5455;53.224;6.000;2023-07-29T04:55:08;100493.78;;;18.03;100.00
10806;BME280;5455;53.224;6.000;2023-07-29T04:57:35;100495.38;;;18.04;100.00
10806;BME280;5455;53.224;6.000;2023-07-29T05:00:03;100491.00;;;18.03;100.00
10806;BME280;5455;53.224;6.000;2023-07-29T05:02:30;100490.06;;;18.13;100.00
10806;BME280;5455;53.224;6.000;2023-07-29T05:04:58;100497.19;;;18.17;100.00
10806;BME280;5455;53.224;6.000;2023-07-29T05:07:25;100499.56;;;18.19;100.00
10806;BME280;5455;53.224;6.000;2023-07-29T05:09:54;100486.34;;;18.23;100.00
10806;BME280;5455;53.224;6.000;2023-07-29T05:12:21;100493.94;;;18.23;100.00
10806;BME280;5455;53.224;6.000;2023-07-29T05:14:48;100492.66;;;18.27;100.00
10806;BME280;5455;53.224;6.000;2023-07-29T05:17:15;100486.63;;;18.32;100.00
10806;BME280;5455;53.224;6.000;2023-07-29T05:19:42;100486.50;;;18.39;100.00
10806;BME280;5455;53.224;6.000;2023-07-29T05:22:10;100482.81;;;18.46;100.00
10806;BME280;5455;53.224;6.000;2023-07-29T05:24:37;100489.56;;;18.48;100.00
10806;BME280;5455;53.224;6.000;2023-07-29T05:27:05;100494.72;;;18.53;100.00
10806;BME280;5455;53.224;6.000;2023-07-29T05:29:32;100488.72;;;18.55;100.00
10806;BME280;5455;53.224;6.000;2023-07-29T05:31:59;100495.13;;;18.52;100.00
10806;BME280;5455;53.224;6.000;2023-07-29T05:34:27;100500.22;;;18.57;100.00
10806;BME280;5455;53.224;6.000;2023-07-29T05:36:55;100491.41;;;18.62;100.00
10806;BME280;5455;53.224;6.000;2023-07-29T05:39:22;100503.72;;;18.64;100.00
10806;BME280;5455;53.224;6.000;2023-07-29T05:41:51;100509.31;;;18.64;100.00
10806;BME280;5455;53.224;6.000;2023-07-29T05:44:18;100510.50;;;18.63;100.00
10806;BME280;5455;53.224;6.000;2023-07-29T05:46:46;100509.25;;;18.68;100.00
10806;BME280;5455;53.224;6.000;2023-07-29T05:49:14;100512.41;;;18.70;100.00
10806;BME280;5455;53.224;6.000;2023-07-29T05:51:42;100509.94;;;18.76;100.00
10806;BME280;5455;53.224;6.000;2023-07-29T05:54:09;100507.94;;;18.76;100.00
10806;BME280;5455;53.224;6.000;2023-07-29T05:56:36;100514.66;;;18.79;100.00
10806;BME280;5455;53.224;6.000;2023-07-29T05:59:04;100509.34;;;18.88;100.00
10806;BME280;5455;53.224;6.000;2023-07-29T06:01:31;100520.72;;;19.00;100.00
10806;BME280;5455;53.224;6.000;2023-07-29T06:03:58;100515.38;;;19.09;100.00
10806;BME280;5455;53.224;6.000;2023-07-29T06:06:26;100521.16;;;19.22;100.00
10806;BME280;5455;53.224;6.000;2023-07-29T06:08:54;100518.88;;;19.37;100.00
10806;BME280;5455;53.224;6.000;2023-07-29T06:11:25;100523.38;;;19.54;100.00
10806;BME280;5455;53.224;6.000;2023-07-29T06:13:53;100511.50;;;19.69;100.00
10806;BME280;5455;53.224;6.000;2023-07-29T06:16:21;100520.13;;;19.78;100.00
10806;BME280;5455;53.224;6.000;2023-07-29T06:18:48;100525.94;;;19.88;100.00
10806;BME280;5455;53.224;6.000;2023-07-29T06:21:15;100518.69;;;19.90;100.00
10806;BME280;5455;53.224;6.000;2023-07-29T06:23:44;100520.75;;;19.86;100.00
10806;BME280;5455;53.224;6.000;2023-07-29T06:26:11;100519.88;;;19.89;100.00
10806;BME280;5455;53.224;6.000;2023-07-29T06:28:39;100525.28;;;20.00;100.00
10806;BME280;5455;53.224;6.000;2023-07-29T06:31:06;100524.84;;;20.21;100.00
10806;BME280;5455;53.224;6.000;2023-07-29T06:33:36;100525.53;;;20.45;100.00
10806;BME280;5455;53.224;6.000;2023-07-29T06:36:03;100534.91;;;20.90;100.00
10806;BME280;5455;53.224;6.000;2023-07-29T06:38:31;100527.31;;;21.23;100.00
10806;BME280;5455;53.224;6.000;2023-07-29T06:40:58;100539.09;;;21.30;100.00
10806;BME280;5455;53.224;6.000;2023-07-29T06:43:25;100528.66;;;21.47;100.00
10806;BME280;5455;53.224;6.000;2023-07-29T06:45:53;100529.09;;;21.46;100.00
10806;BME280;5455;53.224;6.000;2023-07-29T06:48:21;100530.19;;;21.35;100.00
10806;BME280;5455;53.224;6.000;2023-07-29T06:50:49;100530.09;;;21.23;100.00
10806;BME280;5455;53.224;6.000;2023-07-29T06:53:17;100529.56;;;20.96;100.00
10806;BME280;5455;53.224;6.000;2023-07-29T06:55:44;100528.31;;;20.80;100.00
10806;BME280;5455;53.224;6.000;2023-07-29T06:58:11;100522.44;;;20.75;100.00
10806;BME280;5455;53.224;6.000;2023-07-29T07:00:38;100526.03;;;20.75;100.00
10806;BME280;5455;53.224;6.000;2023-07-29T07:03:06;100522.00;;;20.76;100.00
10806;BME280;5455;53.224;6.000;2023-07-29T07:05:38;100522.78;;;20.77;100.00
10806;BME280;5455;53.224;6.000;2023-07-29T07:08:05;100530.66;;;20.66;100.00
10806;BME280;5455;53.224;6.000;2023-07-29T07:10:33;100531.34;;;20.54;100.00
10806;BME280;5455;53.224;6.000;2023-07-29T07:13:00;100528.88;;;20.56;100.00
10806;BME280;5455;53.224;6.000;2023-07-29T07:15:28;100525.84;;;20.66;100.00
10806;BME280;5455;53.224;6.000;2023-07-29T07:17:55;100518.16;;;20.86;100.00
10806;BME280;5455;53.224;6.000;2023-07-29T07:20:23;100530.44;;;21.25;100.00
10806;BME280;5455;53.224;6.000;2023-07-29T07:22:50;100532.03;;;21.26;100.00
10806;BME280;5455;53.224;6.000;2023-07-29T07:25:18;100525.53;;;21.13;100.00
10806;BME280;5455;53.224;6.000;2023-07-29T07:27:45;100517.31;;;21.06;100.00
10806;BME280;5455;53.224;6.000;2023-07-29T07:30:12;100522.13;;;21.21;100.00
10806;BME280;5455;53.224;6.000;2023-07-29T07:32:40;100529.72;;;21.37;100.00
10806;BME280;5455;53.224;6.000;2023-07-29T07:35:07;100529.31;;;21.67;100.00
10806;BME280;5455;53.224;6.000;2023-07-29T07:37:34;100544.00;;;21.59;100.00
10806;BME280;5455;53.224;6.000;2023-07-29T07:40:02;100535.41;;;21.50;100.00
10806;BME280;5455;53.224;6.000;2023-07-29T07:42:29;100524.34;;;21.59;100.00
10806;BME280;5455;53.224;6.000;2023-07-29T07:44:56;100540.22;;;21.94;100.00
10806;BME280;5455;53.224;6.000;2023-07-29T07:47:24;100537.91;;;22.05;100.00
10806;BME280;5455;53.224;6.000;2023-07-29T07:49:52;100539.66;;;21.99;100.00
10806;BME280;5455;53.224;6.000;2023-07-29T07:52:19;100553.84;;;21.51;100.00
10806;BME280;5455;53.224;6.000;2023-07-29T07:54:54;100546.03;;;21.10;100.00
10806;BME280;5455;53.224;6.000;2023-07-29T07:57:21;100544.28;;;21.16;100.00
10806;BME280;5455;53.224;6.000;2023-07-29T07:59:49;100534.28;;;21.31;100.00
10806;BME280;5455;53.224;6.000;2023-07-29T08:02:16;100541.34;;;21.68;100.00
10806;BME280;5455;53.224;6.000;2023-07-29T08:04:43;100549.59;;;21.87;100.00
10806;BME280;5455;53.224;6.000;2023-07-29T08:07:11;100539.66;;;21.99;100.00
10806;BME280;5455;53.224;6.000;2023-07-29T08:09:38;100536.63;;;21.93;100.00
10806;BME280;5455;53.224;6.000;2023-07-29T08:12:05;100536.91;;;21.83;100.00
10806;BME280;5455;53.224;6.000;2023-07-29T08:14:33;100547.91;;;21.61;100.00
10806;BME280;5455;53.224;6.000;2023-07-29T08:17:02;100537.09;;;21.47;100.00
10806;BME280;5455;53.224;6.000;2023-07-29T08:19:31;100548.09;;;21.70;100.00
10806;BME280;5455;53.224;6.000;2023-07-29T08:21:58;100553.84;;;21.95;100.00
10806;BME280;5455;53.224;6.000;2023-07-29T08:24:25;100547.19;;;21.89;100.00
10806;BME280;5455;53.224;6.000;2023-07-29T08:26:53;100551.56;;;21.90;100.00
10806;BME280;5455;53.224;6.000;2023-07-29T08:29:20;100550.47;;;22.01;100.00
10806;BME280;5455;53.224;6.000;2023-07-29T08:31:48;100547.63;;;21.88;100.00
10806;BME280;5455;53.224;6.000;2023-07-29T08:34:21;100551.03;;;21.95;100.00
10806;BME280;5455;53.224;6.000;2023-07-29T08:36:48;100546.09;;;22.00;100.00
10806;BME280;5455;53.224;6.000;2023-07-29T08:39:15;100550.56;;;21.97;100.00
10806;BME280;5455;53.224;6.000;2023-07-29T08:41:51;100549.44;;;21.94;100.00
10806;BME280;5455;53.224;6.000;2023-07-29T08:44:23;100556.13;;;22.13;100.00
10806;BME280;5455;53.224;6.000;2023-07-29T08:46:50;100550.00;;;22.31;100.00
10806;BME280;5455;53.224;6.000;2023-07-29T08:49:18;100555.66;;;22.56;100.00
10806;BME280;5455;53.224;6.000;2023-07-29T08:51:46;100563.00;;;22.79;100.00
10806;BME280;5455;53.224;6.000;2023-07-29T08:54:15;100566.94;;;23.07;100.00
10806;BME280;5455;53.224;6.000;2023-07-29T08:56:43;100564.97;;;23.29;100.00
10806;BME280;5455;53.224;6.000;2023-07-29T08:59:11;100561.91;;;23.61;100.00
10806;BME280;5455;53.224;6.000;2023-07-29T09:01:39;100561.00;;;23.64;100.00
10806;BME280;5455;53.224;6.000;2023-07-29T09:04:06;100560.28;;;23.73;100.00
10806;BME280;5455;53.224;6.000;2023-07-29T09:06:35;100562.44;;;23.69;100.00
10806;BME280;5455;53.224;6.000;2023-07-29T09:09:03;100562.13;;;23.54;100.00
10806;BME280;5455;53.224;6.000;2023-07-29T09:11:31;100550.59;;;23.14;100.00
10806;BME280;5455;53.224;6.000;2023-07-29T09:13:59;100557.94;;;22.86;100.00
10806;BME280;5455;53.224;6.000;2023-07-29T09:16:26;100560.63;;;22.77;100.00
10806;BME280;5455;53.224;6.000;2023-07-29T09:19:01;100561.66;;;22.71;100.00
10806;BME280;5455;53.224;6.000;2023-07-29T09:21:30;100561.31;;;22.81;100.00
10806;BME280;5455;53.224;6.000;2023-07-29T09:24:02;100567.03;;;23.16;100.00
10806;BME280;5455;53.224;6.000;2023-07-29T09:26:31;100569.75;;;23.07;100.00
10806;BME280;5455;53.224;6.000;2023-07-29T09:29:00;100575.25;;;23.10;100.00
10806;BME280;5455;53.224;6.000;2023-07-29T09:31:29;100571.16;;;23.36;100.00
10806;BME280;5455;53.224;6.000;2023-07-29T09:34:01;100573.94;;;23.62;100.00
10806;BME280;5455;53.224;6.000;2023-07-29T09:36:30;100570.66;;;23.63;100.00
10806;BME280;5455;53.224;6.000;2023-07-29T09:38:58;100565.28;;;23.56;100.00
10806;BME280;5455;53.224;6.000;2023-07-29T09:41:27;100568.00;;;23.34;100.00
10806;BME280;5455;53.224;6.000;2023-07-29T09:44:02;100573.50;;;23.63;100.00
10806;BME280;5455;53.224;6.000;2023-07-29T09:46:37;100578.25;;;23.88;100.00
10806;BME280;5455;53.224;6.000;2023-07-29T09:49:07;100581.97;;;24.06;100.00
10806;BME280;5455;53.224;6.000;2023-07-29T09:51:38;100579.34;;;23.90;100.00
10806;BME280;5455;53.224;6.000;2023-07-29T09:54:08;100577.69;;;23.80;100.00
10806;BME280;5455;53.224;6.000;2023-07-29T09:56:41;100563.13;;;23.60;100.00
10806;BME280;5455;53.224;6.000;2023-07-29T09:59:09;100561.00;;;23.86;100.00
10806;BME280;5455;53.224;6.000;2023-07-29T10:01:38;100565.88;;;23.85;100.00
10806;BME280;5455;53.224;6.000;2023-07-29T10:04:06;100566.38;;;23.93;100.00
10806;BME280;5455;53.224;6.000;2023-07-29T10:06:39;100570.06;;;24.02;100.00
10806;BME280;5455;53.224;6.000;2023-07-29T10:09:08;100566.88;;;24.35;100.00
10806;BME280;5455;53.224;6.000;2023-07-29T10:11:37;100570.41;;;24.48;100.00
10806;BME280;5455;53.224;6.000;2023-07-29T10:14:06;100576.09;;;24.57;100.00
10806;BME280;5455;53.224;6.000;2023-07-29T10:16:36;100572.63;;;24.53;100.00
10806;BME280;5455;53.224;6.000;2023-07-29T10:19:07;100570.94;;;24.86;100.00
10806;BME280;5455;53.224;6.000;2023-07-29T10:21:38;100574.84;;;24.89;100.00
10806;BME280;5455;53.224;6.000;2023-07-29T10:24:15;100567.09;;;24.80;100.00
10806;BME280;5455;53.224;6.000;2023-07-29T10:26:49;100567.94;;;24.59;100.00
10806;BME280;5455;53.224;6.000;2023-07-29T10:29:20;100569.88;;;24.71;100.00
10806;BME280;5455;53.224;6.000;2023-07-29T10:31:52;100570.25;;;24.08;100.00
10806;BME280;5455;53.224;6.000;2023-07-29T10:34:24;100556.09;;;23.30;100.00
10806;BME280;5455;53.224;6.000;2023-07-29T10:36:52;100558.19;;;22.92;100.00
10806;BME280;5455;53.224;6.000;2023-07-29T10:39:20;100559.47;;;22.62;100.00
10806;BME280;5455;53.224;6.000;2023-07-29T10:42:05;100561.34;;;22.40;100.00
10806;BME280;5455;53.224;6.000;2023-07-29T10:47:11;100558.25;;;23.14;100.00
10806;BME280;5455;53.224;6.000;2023-07-29T10:49:40;100543.03;;;23.49;100.00
10806;BME280;5455;53.224;6.000;2023-07-29T10:52:08;100554.81;;;23.91;100.00
10806;BME280;5455;53.224;6.000;2023-07-29T10:54:48;100554.00;;;24.34;100.00
10806;BME280;5455;53.224;6.000;2023-07-29T10:57:29;100559.13;;;24.48;100.00
10806;BME280;5455;53.224;6.000;2023-07-29T10:59:58;100560.59;;;24.61;100.00
10806;BME280;5455;53.224;6.000;2023-07-29T11:02:34;100570.28;;;24.30;100.00
10806;BME280;5455;53.224;6.000;2023-07-29T11:05:17;100571.50;;;23.85;100.00
10806;BME280;5455;53.224;6.000;2023-07-29T11:07:47;100573.31;;;23.79;100.00
10806;BME280;5455;53.224;6.000;2023-07-29T11:10:15;100573.13;;;23.95;100.00
10806;BME280;5455;53.224;6.000;2023-07-29T11:12:47;100578.81;;;23.83;100.00
10806;BME280;5455;53.224;6.000;2023-07-29T11:15:23;100585.16;;;23.74;100.00
10806;BME280;5455;53.224;6.000;2023-07-29T11:17:53;100584.47;;;23.23;100.00
10806;BME280;5455;53.224;6.000;2023-07-29T11:20:23;100585.81;;;22.27;100.00
10806;BME280;5455;53.224;6.000;2023-07-29T11:22:53;100585.63;;;21.60;100.00
10806;BME280;5455;53.224;6.000;2023-07-29T11:25:22;100591.91;;;21.35;100.00
10806;BME280;5455;53.224;6.000;2023-07-29T11:27:54;100603.56;;;21.18;100.00
10806;BME280;5455;53.224;6.000;2023-07-29T11:30:22;100593.06;;;21.02;100.00
10806;BME280;5455;53.224;6.000;2023-07-29T11:32:50;100585.84;;;21.21;100.00
10806;BME280;5455;53.224;6.000;2023-07-29T11:35:18;100585.91;;;21.66;100.00
10806;BME280;5455;53.224;6.000;2023-07-29T11:37:50;100587.72;;;21.88;100.00
10806;BME280;5455;53.224;6.000;2023-07-29T11:40:22;100592.00;;;21.93;100.00
10806;BME280;5455;53.224;6.000;2023-07-29T11:42:51;100585.38;;;22.00;100.00
10806;BME280;5455;53.224;6.000;2023-07-29T11:45:20;100587.78;;;22.01;100.00
10806;BME280;5455;53.224;6.000;2023-07-29T11:47:49;100579.34;;;21.85;100.00
10806;BME280;5455;53.224;6.000;2023-07-29T11:50:17;100580.84;;;22.18;100.00
10806;BME280;5455;53.224;6.000;2023-07-29T11:52:46;100591.97;;;22.63;100.00
10806;BME280;5455;53.224;6.000;2023-07-29T11:55:15;100595.28;;;22.99;100.00
10806;BME280;5455;53.224;6.000;2023-07-29T11:57:43;100599.47;;;22.95;100.00
10806;BME280;5455;53.224;6.000;2023-07-29T12:00:11;100608.31;;;22.81;100.00
10806;BME280;5455;53.224;6.000;2023-07-29T12:02:42;100607.16;;;22.53;100.00
10806;BME280;5455;53.224;6.000;2023-07-29T12:05:14;100599.47;;;22.41;100.00
10806;BME280;5455;53.224;6.000;2023-07-29T12:07:43;100601.63;;;22.21;100.00
10806;BME280;5455;53.224;6.000;2023-07-29T12:10:11;100596.75;;;21.96;100.00
10806;BME280;5455;53.224;6.000;2023-07-29T12:12:49;100600.47;;;22.06;100.00
10806;BME280;5455;53.224;6.000;2023-07-29T12:15:25;100601.19;;;22.64;100.00
10806;BME280;5455;53.224;6.000;2023-07-29T12:17:54;100603.94;;;23.18;100.00
10806;BME280;5455;53.224;6.000;2023-07-29T12:20:26;100609.66;;;23.27;100.00
10806;BME280;5455;53.224;6.000;2023-07-29T12:22:56;100613.28;;;23.15;100.00
10806;BME280;5455;53.224;6.000;2023-07-29T12:25:24;100614.63;;;22.85;100.00
10806;BME280;5455;53.224;6.000;2023-07-29T12:27:53;100604.94;;;22.98;100.00
10806;BME280;5455;53.224;6.000;2023-07-29T12:30:24;100619.91;;;23.21;100.00
10806;BME280;5455;53.224;6.000;2023-07-29T12:32:54;100628.00;;;23.56;100.00
10806;BME280;5455;53.224;6.000;2023-07-29T12:35:22;100628.84;;;23.79;100.00
10806;BME280;5455;53.224;6.000;2023-07-29T12:37:59;100629.13;;;24.28;100.00
10806;BME280;5455;53.224;6.000;2023-07-29T12:40:27;100629.72;;;24.23;97.19
10806;BME280;5455;53.224;6.000;2023-07-29T12:42:56;100633.34;;;24.23;95.19
10806;BME280;5455;53.224;6.000;2023-07-29T12:45:23;100625.25;;;24.12;95.46
10806;BME280;5455;53.224;6.000;2023-07-29T12:47:54;100626.31;;;23.93;94.37
10806;BME280;5455;53.224;6.000;2023-07-29T12:50:21;100624.94;;;23.76;96.00
10806;BME280;5455;53.224;6.000;2023-07-29T12:52:48;100622.25;;;23.94;98.46
10806;BME280;5455;53.224;6.000;2023-07-29T12:55:16;100622.78;;;24.36;96.23
10806;BME280;5455;53.224;6.000;2023-07-29T12:57:47;100631.56;;;24.38;94.50
10806;BME280;5455;53.224;6.000;2023-07-29T13:00:15;100629.13;;;24.49;92.95
10806;BME280;5455;53.224;6.000;2023-07-29T13:02:49;100623.56;;;24.15;88.38
10806;BME280;5455;53.224;6.000;2023-07-29T13:05:16;100631.50;;;23.95;92.98
10806;BME280;5455;53.224;6.000;2023-07-29T13:07:44;100624.03;;;24.01;94.18